Pinon Canyon, Colorado
Current Conditions -  °F | °C
As of 7:54 AM on Wednesday 26 Nov 2014 (Local Time) from KTAD Reporting Station
Clear Clear  
Wind Chill: 28°   Ceiling: Unl
Heat Index: 28°   Visibility: 10mi
Dew Point: 25°   Wind: 3mph
Humidity: 88%   Direction: 170°S
Pressure: 30.24"   Gusts: NA
Location:  37.1661°N, 104.486°W
Report Text: KTAD 261454Z AUTO 17003KT 10SM CLR M02/M04 A3024 RMK AO2 SLP245 T10221039 51015
Loading
Personal Weather Stations






























Interactive Weather Map New forecast layout! Learn more

10-Day Weather Forecast

Advertisements
Track Severe Weather on mobile